createdAt,value
2022-12-25T00:01:16.820Z,11.44
2022-12-25T00:03:43.752Z,11.54
2022-12-25T00:06:10.440Z,11.59
2022-12-25T00:08:38.033Z,11.56
2022-12-25T00:11:08.088Z,11.49
2022-12-25T00:13:34.651Z,11.43
2022-12-25T00:16:05.938Z,11.42
2022-12-25T00:18:32.342Z,11.51
2022-12-25T00:21:04.701Z,11.46
2022-12-25T00:23:31.474Z,11.50
2022-12-25T00:25:58.569Z,11.53
2022-12-25T00:28:25.856Z,11.52
2022-12-25T00:30:52.429Z,11.53
2022-12-25T00:33:18.923Z,11.47
2022-12-25T00:35:45.530Z,11.48
2022-12-25T00:38:11.939Z,11.42
2022-12-25T00:40:43.899Z,11.50
2022-12-25T00:43:10.384Z,11.57
2022-12-25T00:45:36.940Z,11.55
2022-12-25T00:48:03.541Z,11.58
2022-12-25T00:50:29.916Z,11.56
2022-12-25T00:52:56.365Z,11.52
2022-12-25T00:55:22.771Z,11.45
2022-12-25T00:57:49.187Z,11.52
2022-12-25T01:00:16.381Z,11.62
2022-12-25T01:02:42.915Z,11.60
2022-12-25T01:05:09.664Z,11.56
2022-12-25T01:07:36.059Z,11.43
2022-12-25T01:10:21.114Z,11.38
2022-12-25T01:12:47.600Z,11.35
2022-12-25T01:15:14.058Z,11.42
2022-12-25T01:17:42.070Z,11.46
2022-12-25T01:20:09.774Z,11.48
2022-12-25T01:22:36.129Z,11.51
2022-12-25T01:25:02.673Z,11.51
2022-12-25T01:27:29.028Z,11.44
2022-12-25T01:29:55.381Z,11.32
2022-12-25T01:32:21.706Z,11.30
2022-12-25T01:34:52.073Z,11.31
2022-12-25T01:37:22.205Z,11.22
2022-12-25T01:39:48.558Z,11.18
2022-12-25T01:42:19.966Z,11.12
2022-12-25T01:44:46.307Z,11.10
2022-12-25T01:47:14.725Z,11.14
2022-12-25T01:49:44.015Z,11.18
2022-12-25T01:52:18.789Z,11.15
2022-12-25T01:54:55.706Z,11.26
2022-12-25T01:57:28.672Z,11.27
2022-12-25T01:59:57.470Z,11.21
2022-12-25T02:02:25.107Z,11.22
2022-12-25T02:04:55.851Z,11.20
2022-12-25T02:07:25.553Z,11.26
2022-12-25T02:09:52.817Z,11.29
2022-12-25T02:12:27.032Z,11.25
2022-12-25T02:15:02.891Z,11.26
2022-12-25T02:17:38.541Z,11.23
2022-12-25T02:20:35.356Z,11.28
2022-12-25T02:23:13.157Z,11.25
2022-12-25T02:25:52.872Z,11.25
2022-12-25T02:28:32.413Z,11.35
2022-12-25T02:31:10.722Z,11.36
2022-12-25T02:34:05.510Z,11.30
2022-12-25T02:36:57.397Z,11.32
2022-12-25T02:39:58.767Z,11.28
2022-12-25T02:43:02.648Z,11.28
2022-12-25T02:45:54.739Z,11.18
2022-12-25T02:48:43.186Z,11.21
2022-12-25T02:51:33.326Z,11.15
2022-12-25T02:54:22.491Z,11.14
2022-12-25T02:57:09.693Z,11.18
2022-12-25T02:59:57.335Z,11.16
2022-12-25T03:02:43.677Z,11.10
2022-12-25T03:05:33.229Z,10.85
2022-12-25T03:08:04.556Z,11.03
2022-12-25T03:10:51.645Z,10.95
2022-12-25T03:13:28.103Z,11.05
2022-12-25T03:16:27.809Z,11.06
2022-12-25T03:18:56.818Z,11.07
2022-12-25T03:21:41.880Z,11.04
2022-12-25T03:24:26.705Z,11.02
2022-12-25T03:26:56.506Z,10.95
2022-12-25T03:29:47.157Z,10.96
2022-12-25T03:32:26.697Z,11.02
2022-12-25T03:35:19.087Z,11.02
2022-12-25T03:38:07.262Z,11.05
2022-12-25T03:41:23.029Z,10.93
2022-12-25T03:44:30.158Z,10.98
2022-12-25T03:47:23.866Z,11.03
2022-12-25T03:50:18.424Z,11.02
2022-12-25T03:53:05.588Z,11.07
2022-12-25T03:55:51.129Z,11.11
2022-12-25T03:58:38.912Z,11.06
2022-12-25T04:01:23.789Z,11.04
2022-12-25T04:04:08.504Z,11.07
2022-12-25T04:06:53.521Z,11.14
2022-12-25T04:09:38.459Z,11.14
2022-12-25T04:12:23.709Z,11.08
2022-12-25T04:15:08.630Z,11.09
2022-12-25T04:17:53.685Z,11.13
2022-12-25T04:20:38.727Z,11.18
2022-12-25T04:23:23.521Z,11.11
2022-12-25T04:26:08.493Z,10.97
2022-12-25T04:28:53.288Z,11.01
2022-12-25T04:31:39.825Z,11.00
2022-12-25T04:34:35.578Z,10.98
2022-12-25T04:37:01.888Z,10.98
2022-12-25T04:39:28.209Z,10.93
2022-12-25T04:41:54.562Z,10.97
2022-12-25T04:44:20.932Z,11.02
2022-12-25T04:46:47.304Z,11.02
2022-12-25T04:49:13.796Z,11.08
2022-12-25T04:51:40.203Z,10.93
2022-12-25T04:54:06.546Z,10.90
2022-12-25T04:56:33.391Z,10.94
2022-12-25T04:58:59.951Z,10.91
2022-12-25T05:01:26.517Z,10.97
2022-12-25T05:03:52.986Z,10.88
2022-12-25T05:06:19.715Z,10.91
2022-12-25T05:08:46.249Z,10.77
2022-12-25T05:11:14.906Z,10.49
2022-12-25T05:13:41.882Z,10.45
2022-12-25T05:16:12.359Z,10.42
2022-12-25T05:18:38.760Z,10.51
2022-12-25T05:21:07.709Z,10.54
2022-12-25T05:23:34.518Z,10.61
2022-12-25T05:26:07.881Z,10.54
2022-12-25T05:28:35.494Z,10.57
2022-12-25T05:31:01.877Z,10.58
2022-12-25T05:33:28.249Z,10.59
2022-12-25T05:35:54.588Z,10.52
2022-12-25T05:38:20.988Z,10.44
2022-12-25T05:40:47.361Z,10.45
2022-12-25T05:43:13.723Z,10.52
2022-12-25T05:45:40.046Z,10.49
2022-12-25T05:48:06.604Z,10.51
2022-12-25T05:50:33.053Z,10.49
2022-12-25T05:53:05.944Z,10.32
2022-12-25T05:55:35.781Z,10.22
2022-12-25T05:58:02.266Z,10.21
2022-12-25T06:00:28.736Z,10.13
2022-12-25T06:02:55.480Z,10.14
2022-12-25T06:05:21.898Z,10.18
2022-12-25T06:07:48.245Z,10.05
2022-12-25T06:10:14.735Z,10.10
2022-12-25T06:12:41.128Z,10.17
2022-12-25T06:15:08.429Z,10.25
2022-12-25T06:17:34.794Z,10.28
2022-12-25T06:20:01.128Z,10.39
2022-12-25T06:22:32.224Z,10.37
2022-12-25T06:24:59.544Z,10.36
2022-12-25T06:27:26.587Z,10.36
2022-12-25T06:29:53.323Z,10.40
2022-12-25T06:32:19.671Z,10.43
2022-12-25T06:34:46.049Z,10.41
2022-12-25T06:37:12.371Z,10.43
2022-12-25T06:39:38.691Z,10.44
2022-12-25T06:42:05.037Z,10.44
2022-12-25T06:44:31.528Z,10.39
2022-12-25T06:46:57.893Z,10.38
2022-12-25T06:49:24.244Z,10.37
2022-12-25T06:51:50.597Z,10.37
2022-12-25T06:54:16.986Z,10.40
2022-12-25T06:56:43.298Z,10.36
2022-12-25T06:59:10.888Z,10.37
2022-12-25T07:01:46.555Z,10.29
2022-12-25T07:04:35.408Z,10.30
2022-12-25T07:07:08.452Z,9.99
2022-12-25T07:09:36.121Z,10.00
2022-12-25T07:12:19.941Z,10.01
2022-12-25T07:14:48.911Z,9.94
2022-12-25T07:17:19.763Z,10.03
2022-12-25T07:19:46.873Z,10.04
2022-12-25T07:22:13.952Z,9.97
2022-12-25T07:24:40.483Z,10.05
2022-12-25T07:27:06.933Z,10.04
2022-12-25T07:29:33.465Z,10.18
2022-12-25T07:32:00.110Z,10.01
2022-12-25T07:34:26.558Z,10.03
2022-12-25T07:36:54.687Z,10.02
2022-12-25T07:39:21.021Z,10.11
2022-12-25T07:41:47.360Z,10.00
2022-12-25T07:44:13.822Z,9.92
2022-12-25T07:46:40.166Z,9.84
2022-12-25T07:49:06.628Z,9.72
2022-12-25T07:51:32.996Z,9.74
2022-12-25T07:53:59.526Z,9.78
2022-12-25T07:56:26.084Z,9.82
2022-12-25T07:58:52.432Z,9.90
2022-12-25T08:01:24.831Z,9.90
2022-12-25T08:03:56.904Z,9.88
2022-12-25T08:06:29.346Z,9.79
2022-12-25T08:09:06.936Z,9.85
2022-12-25T08:11:33.444Z,9.85
2022-12-25T08:14:00.200Z,9.92
2022-12-25T08:16:26.584Z,9.99
2022-12-25T08:18:53.375Z,10.09
2022-12-25T08:21:19.749Z,10.09
2022-12-25T08:23:47.060Z,9.96
2022-12-25T08:26:19.541Z,9.93
2022-12-25T08:28:47.014Z,9.85
2022-12-25T08:31:17.156Z,10.01
2022-12-25T08:33:44.188Z,10.03
2022-12-25T08:36:11.954Z,10.05
2022-12-25T08:38:38.832Z,10.01
2022-12-25T08:41:05.628Z,10.02
2022-12-25T08:43:31.952Z,9.97
2022-12-25T08:45:58.401Z,10.02
2022-12-25T08:48:25.217Z,9.93
2022-12-25T08:50:53.683Z,9.91
2022-12-25T08:53:20.481Z,9.85
2022-12-25T08:55:46.997Z,9.97
2022-12-25T08:58:14.543Z,9.78
2022-12-25T09:00:41.124Z,9.86
2022-12-25T09:03:07.560Z,9.98
2022-12-25T09:05:37.983Z,10.03
2022-12-25T09:08:04.694Z,10.02
2022-12-25T09:10:31.040Z,9.97
2022-12-25T09:12:57.387Z,10.02
2022-12-25T09:15:23.992Z,10.10
2022-12-25T09:17:50.342Z,10.04
2022-12-25T09:20:16.698Z,9.98
2022-12-25T09:22:43.043Z,10.02
2022-12-25T09:25:09.925Z,10.04
2022-12-25T09:27:36.279Z,9.95
2022-12-25T09:30:03.680Z,9.89
2022-12-25T09:32:30.064Z,9.83
2022-12-25T09:34:56.360Z,9.92
2022-12-25T09:37:22.672Z,9.88
2022-12-25T09:39:48.993Z,10.04
2022-12-25T09:42:20.601Z,9.97
2022-12-25T09:44:55.904Z,9.99
2022-12-25T09:47:30.303Z,9.99
2022-12-25T09:50:03.971Z,9.99
2022-12-25T09:52:44.857Z,9.96
2022-12-25T09:55:19.791Z,9.99
2022-12-25T09:57:52.140Z,9.68
2022-12-25T10:00:23.418Z,9.75
2022-12-25T10:03:22.933Z,9.93
2022-12-25T10:06:09.931Z,10.01
2022-12-25T10:08:57.048Z,9.94
2022-12-25T10:11:40.511Z,10.04
2022-12-25T10:14:24.464Z,10.05
2022-12-25T10:17:23.215Z,9.97
2022-12-25T10:20:02.494Z,9.93
2022-12-25T10:22:38.583Z,9.99
2022-12-25T10:25:06.907Z,10.15
2022-12-25T10:27:41.717Z,10.26
2022-12-25T10:30:21.208Z,10.31
2022-12-25T10:32:48.516Z,10.32
2022-12-25T10:35:18.574Z,10.40
2022-12-25T10:37:51.627Z,10.32
2022-12-25T10:40:23.707Z,10.37
2022-12-25T10:42:56.192Z,10.37
2022-12-25T10:45:22.666Z,10.41
2022-12-25T10:47:55.009Z,10.44
2022-12-25T10:50:28.336Z,10.40
2022-12-25T10:53:09.274Z,10.46
2022-12-25T10:55:35.603Z,10.48
2022-12-25T10:58:02.174Z,10.43
2022-12-25T11:00:31.438Z,10.46
2022-12-25T11:02:58.782Z,10.53
2022-12-25T11:05:34.165Z,10.53
2022-12-25T11:08:02.188Z,10.61
2022-12-25T11:10:43.702Z,10.60
2022-12-25T11:13:20.671Z,10.59
2022-12-25T11:16:00.448Z,10.62
2022-12-25T11:18:30.028Z,10.65
2022-12-25T11:21:15.219Z,10.73
2022-12-25T11:23:48.523Z,10.83
2022-12-25T11:26:15.860Z,10.83
2022-12-25T11:28:43.149Z,10.83
2022-12-25T11:31:19.570Z,10.87
2022-12-25T11:33:54.861Z,10.93
2022-12-25T11:36:36.307Z,11.01
2022-12-25T11:39:23.685Z,11.02
2022-12-25T11:41:56.464Z,11.06
2022-12-25T11:44:31.643Z,11.03
2022-12-25T11:47:12.645Z,11.02
2022-12-25T11:49:50.202Z,10.97
2022-12-25T11:52:18.531Z,10.99
2022-12-25T11:54:54.716Z,10.94
2022-12-25T11:57:23.221Z,10.88
2022-12-25T11:59:56.949Z,10.96
2022-12-25T12:02:32.454Z,11.09
2022-12-25T12:05:09.069Z,11.22
2022-12-25T12:07:37.381Z,11.26
2022-12-25T12:10:19.688Z,11.33
2022-12-25T12:12:52.205Z,11.14
2022-12-25T12:15:35.613Z,11.25
2022-12-25T12:18:16.645Z,11.30
2022-12-25T12:20:43.005Z,11.38
2022-12-25T12:23:17.041Z,11.50
2022-12-25T12:25:44.712Z,11.48
2022-12-25T12:28:22.522Z,11.52
2022-12-25T12:31:18.632Z,11.60
2022-12-25T12:33:57.423Z,11.61
2022-12-25T12:36:35.739Z,11.59
2022-12-25T12:39:05.784Z,11.49
2022-12-25T12:41:47.922Z,11.48
2022-12-25T12:44:17.123Z,11.58
2022-12-25T12:46:55.962Z,11.60
2022-12-25T12:49:25.652Z,11.67
2022-12-25T12:52:30.156Z,11.46
2022-12-25T12:55:04.220Z,11.48
2022-12-25T12:57:35.839Z,11.38
2022-12-25T13:00:09.876Z,11.43
2022-12-25T13:02:43.508Z,11.47
2022-12-25T13:05:34.759Z,11.21
2022-12-25T13:08:20.004Z,11.12
2022-12-25T13:11:06.422Z,11.28
2022-12-25T13:13:40.794Z,11.20
2022-12-25T13:16:16.598Z,11.33
2022-12-25T13:18:43.232Z,11.31
2022-12-25T13:21:19.339Z,11.33
2022-12-25T13:23:45.668Z,11.32
2022-12-25T13:26:15.378Z,11.20
2022-12-25T13:28:41.730Z,11.22
2022-12-25T13:31:14.191Z,10.93
2022-12-25T13:33:45.061Z,10.74
2022-12-25T13:36:12.930Z,10.66
2022-12-25T13:38:48.108Z,10.63
2022-12-25T13:41:45.088Z,10.54
2022-12-25T13:44:24.193Z,10.50
2022-12-25T13:46:50.728Z,10.82
2022-12-25T13:49:19.497Z,10.76
2022-12-25T13:51:46.694Z,10.27
2022-12-25T13:54:15.334Z,10.31
2022-12-25T13:56:51.027Z,10.27
2022-12-25T13:59:20.167Z,10.25
2022-12-25T14:01:47.525Z,10.20
2022-12-25T14:04:24.461Z,10.19
2022-12-25T14:06:52.487Z,10.18
2022-12-25T14:09:19.524Z,10.09
2022-12-25T14:11:50.313Z,10.10
2022-12-25T14:14:23.156Z,10.10
2022-12-25T14:16:53.111Z,10.05
2022-12-25T14:19:28.163Z,10.05
2022-12-25T14:22:02.197Z,10.26
2022-12-25T14:24:30.460Z,10.32
2022-12-25T14:27:02.889Z,10.42
2022-12-25T14:29:36.902Z,10.44
2022-12-25T14:32:06.112Z,10.57
2022-12-25T14:34:34.137Z,10.72
2022-12-25T14:37:03.128Z,10.62
2022-12-25T14:39:29.460Z,10.52
2022-12-25T14:41:56.400Z,10.22
2022-12-25T14:44:34.131Z,10.18
2022-12-25T14:47:20.246Z,10.23
2022-12-25T14:49:47.663Z,10.18
2022-12-25T14:52:19.361Z,10.16
2022-12-25T14:54:48.464Z,10.30
2022-12-25T14:57:26.919Z,10.29
2022-12-25T14:59:59.375Z,9.95
2022-12-25T15:02:26.201Z,9.97
2022-12-25T15:04:53.402Z,9.81
2022-12-25T15:07:31.249Z,10.07
2022-12-25T15:10:27.118Z,10.04
2022-12-25T15:12:43.978Z,10.27
2022-12-25T15:15:10.485Z,10.16
2022-12-25T15:17:38.011Z,10.30
2022-12-25T15:20:05.375Z,10.22
2022-12-25T15:22:54.051Z,10.13
2022-12-25T15:25:20.824Z,10.14
2022-12-25T15:27:47.833Z,10.14
2022-12-25T15:30:14.478Z,10.41
2022-12-25T15:32:40.840Z,10.62
2022-12-25T15:35:13.034Z,10.78
2022-12-25T15:37:39.406Z,10.71
2022-12-25T15:40:06.954Z,10.66
2022-12-25T15:42:33.495Z,10.61
2022-12-25T15:44:59.850Z,10.46
2022-12-25T15:47:26.488Z,10.32
2022-12-25T15:49:52.828Z,9.89
2022-12-25T15:52:19.168Z,9.78
2022-12-25T15:54:45.537Z,9.73
2022-12-25T15:57:22.041Z,9.61
2022-12-25T15:59:48.425Z,9.50
2022-12-25T16:02:20.701Z,9.43
2022-12-25T16:04:47.720Z,9.37
2022-12-25T16:07:23.008Z,9.38
2022-12-25T16:09:49.798Z,9.28
2022-12-25T16:12:16.221Z,9.29
2022-12-25T16:14:42.587Z,9.30
2022-12-25T16:17:12.668Z,9.19
2022-12-25T16:19:39.010Z,9.28
2022-12-25T16:22:23.008Z,9.21
2022-12-25T16:24:50.062Z,9.10
2022-12-25T16:27:16.434Z,9.12
2022-12-25T16:29:42.796Z,9.10
2022-12-25T16:32:13.535Z,9.01
2022-12-25T16:34:40.774Z,8.92
2022-12-25T16:37:07.665Z,8.83
2022-12-25T16:39:34.020Z,8.79
2022-12-25T16:42:00.630Z,8.72
2022-12-25T16:44:27.015Z,8.65
2022-12-25T16:46:53.378Z,8.62
2022-12-25T16:49:19.744Z,8.71
2022-12-25T16:51:46.133Z,8.74
2022-12-25T16:54:12.454Z,8.89
2022-12-25T16:56:38.795Z,8.73
2022-12-25T16:59:05.160Z,8.51
2022-12-25T17:01:31.636Z,8.50
2022-12-25T17:04:01.483Z,8.63
2022-12-25T17:06:28.428Z,8.80
2022-12-25T17:08:57.914Z,8.90
2022-12-25T17:11:27.273Z,9.10
2022-12-25T17:13:54.195Z,9.22
2022-12-25T17:16:23.316Z,9.47
2022-12-25T17:19:16.436Z,9.67
2022-12-25T17:21:42.759Z,9.59
2022-12-25T17:24:09.171Z,9.65
2022-12-25T17:26:35.922Z,9.59
2022-12-25T17:29:02.862Z,9.63
2022-12-25T17:31:29.433Z,9.70
2022-12-25T17:33:55.787Z,9.79
2022-12-25T17:36:22.708Z,9.93
2022-12-25T17:38:49.296Z,9.90
2022-12-25T17:41:17.312Z,9.78
2022-12-25T17:43:45.462Z,9.47
2022-12-25T17:46:17.795Z,9.29
2022-12-25T17:48:45.484Z,9.32
2022-12-25T17:51:14.201Z,9.01
2022-12-25T17:53:42.618Z,8.92
2022-12-25T17:56:10.933Z,8.91
2022-12-25T17:58:38.342Z,8.87
2022-12-25T18:01:06.792Z,9.09
2022-12-25T18:03:33.620Z,9.20
2022-12-25T18:06:00.868Z,9.19
2022-12-25T18:08:31.222Z,9.05
2022-12-25T18:11:04.840Z,8.83
2022-12-25T18:13:32.082Z,8.51
2022-12-25T18:16:03.164Z,8.42
2022-12-25T18:18:30.017Z,8.32
2022-12-25T18:20:56.584Z,8.11
2022-12-25T18:23:23.131Z,8.03
2022-12-25T18:25:49.470Z,7.99
2022-12-25T18:28:16.024Z,7.97
2022-12-25T18:30:43.420Z,7.74
2022-12-25T18:33:09.855Z,7.69
2022-12-25T18:35:42.699Z,7.67
2022-12-25T18:38:10.397Z,7.45
2022-12-25T18:40:45.309Z,7.44
2022-12-25T18:43:11.711Z,7.43
2022-12-25T18:45:38.759Z,7.46
2022-12-25T18:48:06.182Z,7.58
2022-12-25T18:50:37.344Z,7.65
2022-12-25T18:53:04.384Z,7.72
2022-12-25T18:55:31.320Z,7.73
2022-12-25T18:57:58.052Z,7.73
2022-12-25T19:00:25.269Z,7.89
2022-12-25T19:02:57.985Z,8.11
2022-12-25T19:05:25.062Z,8.18
2022-12-25T19:07:51.404Z,8.22
2022-12-25T19:10:18.005Z,8.00
2022-12-25T19:12:44.357Z,7.97
2022-12-25T19:15:10.963Z,8.13
2022-12-25T19:17:37.317Z,8.22
2022-12-25T19:20:05.639Z,8.24
2022-12-25T19:22:32.113Z,8.46
2022-12-25T19:24:58.495Z,8.19
2022-12-25T19:27:24.894Z,8.02
2022-12-25T19:29:51.263Z,7.89
2022-12-25T19:32:17.628Z,7.76
2022-12-25T19:34:44.115Z,7.71
2022-12-25T19:37:10.545Z,7.55
2022-12-25T19:39:37.457Z,7.61
2022-12-25T19:42:03.864Z,7.63
2022-12-25T19:44:30.198Z,7.74
2022-12-25T19:46:56.540Z,7.64
2022-12-25T19:49:22.928Z,7.75
2022-12-25T19:51:49.429Z,8.01
2022-12-25T19:54:18.663Z,8.09
2022-12-25T19:56:45.058Z,8.12
2022-12-25T19:59:12.141Z,8.04
2022-12-25T20:01:39.015Z,7.70
2022-12-25T20:04:08.573Z,7.60
2022-12-25T20:06:38.287Z,7.43
2022-12-25T20:09:12.160Z,7.54
2022-12-25T20:11:39.199Z,7.59
2022-12-25T20:14:07.362Z,7.66
2022-12-25T20:16:36.800Z,7.88
2022-12-25T20:19:04.286Z,7.99
2022-12-25T20:21:30.691Z,8.35
2022-12-25T20:23:57.678Z,8.21
2022-12-25T20:26:30.129Z,8.44
2022-12-25T20:28:57.233Z,8.51
2022-12-25T20:31:28.876Z,8.60
2022-12-25T20:33:57.121Z,8.57
2022-12-25T20:36:23.517Z,8.57
2022-12-25T20:38:50.022Z,8.86
2022-12-25T20:41:28.725Z,9.11
2022-12-25T20:43:56.507Z,9.19
2022-12-25T20:46:23.778Z,9.35
2022-12-25T20:48:50.274Z,9.03
2022-12-25T20:51:22.440Z,9.08
2022-12-25T20:53:49.145Z,9.29
2022-12-25T20:56:17.923Z,9.38
2022-12-25T20:58:44.711Z,9.52
2022-12-25T21:01:14.475Z,9.61
2022-12-25T21:03:41.792Z,9.71
2022-12-25T21:06:09.392Z,9.68
2022-12-25T21:08:36.484Z,9.50
2022-12-25T21:11:04.410Z,9.62
2022-12-25T21:13:36.614Z,9.63
2022-12-25T21:16:07.930Z,9.69
2022-12-25T21:18:34.366Z,9.80
2022-12-25T21:21:05.338Z,9.89
2022-12-25T21:23:32.303Z,9.90
2022-12-25T21:25:58.634Z,9.95
2022-12-25T21:28:30.005Z,9.88
2022-12-25T21:31:02.862Z,9.44
2022-12-25T21:33:47.720Z,9.34
2022-12-25T21:36:14.136Z,9.18
2022-12-25T21:38:40.515Z,9.18
2022-12-25T21:41:10.123Z,9.22
2022-12-25T21:43:38.772Z,9.43
2022-12-25T21:46:07.739Z,9.28
2022-12-25T21:48:35.879Z,9.18
2022-12-25T21:51:31.180Z,8.93
2022-12-25T21:53:58.995Z,8.49
2022-12-25T21:56:28.152Z,8.66
2022-12-25T21:58:54.561Z,8.81
2022-12-25T22:01:21.107Z,8.96
2022-12-25T22:03:47.560Z,8.68
2022-12-25T22:06:32.702Z,8.33
2022-12-25T22:08:59.046Z,8.41
2022-12-25T22:11:45.173Z,8.45
2022-12-25T22:14:52.833Z,8.35
2022-12-25T22:17:46.904Z,7.75
2022-12-25T22:20:29.966Z,7.80
2022-12-25T22:22:57.690Z,7.72
2022-12-25T22:25:24.818Z,7.71
2022-12-25T22:27:51.867Z,7.72
2022-12-25T22:30:24.732Z,7.66
2022-12-25T22:32:52.137Z,7.53
2022-12-25T22:35:18.621Z,7.35
2022-12-25T22:37:45.351Z,7.40
2022-12-25T22:40:14.772Z,7.42
2022-12-25T22:42:41.702Z,7.43
2022-12-25T22:45:08.729Z,7.33
2022-12-25T22:47:35.137Z,7.32
2022-12-25T22:50:01.688Z,7.24
2022-12-25T22:52:28.171Z,7.41
2022-12-25T22:54:54.629Z,7.69
2022-12-25T22:57:20.993Z,7.97
2022-12-25T22:59:47.375Z,8.13
2022-12-25T23:02:13.832Z,7.97
2022-12-25T23:04:40.312Z,7.71
2022-12-25T23:07:06.888Z,7.81
2022-12-25T23:09:34.097Z,7.69
2022-12-25T23:12:00.482Z,7.84
2022-12-25T23:14:39.588Z,7.65
2022-12-25T23:17:30.799Z,7.74
2022-12-25T23:20:17.071Z,7.58
2022-12-25T23:23:02.600Z,7.80
2022-12-25T23:25:48.636Z,7.83
2022-12-25T23:28:35.113Z,7.95
2022-12-25T23:31:01.627Z,8.03
2022-12-25T23:33:28.088Z,7.86
2022-12-25T23:35:54.431Z,7.75
2022-12-25T23:38:20.760Z,7.43
2022-12-25T23:40:47.093Z,7.43
2022-12-25T23:43:13.455Z,7.55
2022-12-25T23:45:39.785Z,7.65
2022-12-25T23:48:06.280Z,7.92
2022-12-25T23:50:33.716Z,7.95
2022-12-25T23:53:00.048Z,8.17
2022-12-25T23:55:26.404Z,7.89
2022-12-25T23:57:52.814Z,7.71
